createdAt,value
2019-04-23T00:01:50.984Z,6.77
2019-04-23T00:04:19.917Z,6.70
2019-04-23T00:07:15.709Z,6.63
2019-04-23T00:09:26.036Z,6.73
2019-04-23T00:12:01.871Z,6.65
2019-04-23T00:14:38.297Z,6.71
2019-04-23T00:17:12.040Z,6.60
2019-04-23T00:19:42.331Z,6.63
2019-04-23T00:22:15.067Z,6.70
2019-04-23T00:30:01.022Z,6.83
2019-04-23T00:32:37.930Z,6.83
2019-04-23T00:35:05.893Z,6.88
2019-04-23T00:38:01.257Z,6.93
2019-04-23T00:40:12.826Z,7.13
2019-04-23T00:43:03.370Z,7.20
2019-04-23T00:45:27.046Z,7.15
2019-04-23T00:53:20.335Z,7.09
2019-04-23T00:55:35.224Z,7.15
2019-04-23T00:58:15.832Z,7.05
2019-04-23T01:03:11.871Z,6.88
2019-04-23T01:05:50.423Z,6.95
2019-04-23T01:11:16.391Z,6.93
2019-04-23T01:13:39.597Z,6.93
2019-04-23T01:18:49.111Z,6.80
2019-04-23T01:21:01.286Z,6.73
2019-04-23T01:23:58.151Z,6.74
2019-04-23T01:26:57.598Z,6.72
2019-04-23T01:29:20.212Z,6.79
2019-04-23T01:31:58.571Z,6.75
2019-04-23T01:34:31.903Z,6.82
2019-04-23T01:37:01.178Z,6.90
2019-04-23T01:39:32.742Z,6.89
2019-04-23T01:42:14.588Z,6.95
2019-04-23T01:44:42.369Z,6.95
2019-04-23T01:47:21.488Z,6.99
2019-04-23T01:49:54.702Z,7.00
2019-04-23T01:52:24.900Z,6.96
2019-04-23T01:54:51.990Z,6.95
2019-04-23T01:57:30.883Z,7.07
2019-04-23T02:00:03.159Z,6.98
2019-04-23T02:02:39.100Z,7.00
2019-04-23T02:07:44.339Z,6.89
2019-04-23T02:10:21.898Z,6.86
2019-04-23T02:12:47.698Z,6.85
2019-04-23T02:15:23.035Z,6.86
2019-04-23T02:17:58.572Z,6.85
2019-04-23T02:20:30.812Z,6.90
2019-04-23T02:23:13.279Z,6.80
2019-04-23T02:28:09.148Z,6.85
2019-04-23T02:30:57.824Z,6.86
2019-04-23T02:38:31.539Z,7.14
2019-04-23T02:43:21.993Z,7.22
2019-04-23T02:46:09.327Z,7.26
2019-04-23T02:51:13.356Z,7.34
2019-04-23T02:53:55.587Z,7.42
2019-04-23T02:58:55.023Z,7.47
2019-04-23T03:01:36.015Z,7.40
2019-04-23T03:04:04.053Z,7.46
2019-04-23T03:06:32.183Z,7.39
2019-04-23T03:09:00.444Z,7.36
2019-04-23T03:11:41.712Z,7.34
2019-04-23T03:14:18.678Z,7.33
2019-04-23T03:22:05.953Z,7.36
2019-04-23T03:24:54.514Z,7.35
2019-04-23T03:27:29.168Z,7.38
2019-04-23T03:34:34.587Z,7.55
2019-04-23T03:40:11.613Z,7.79
2019-04-23T03:42:53.933Z,7.90
2019-04-23T03:45:36.976Z,7.83
2019-04-23T03:48:05.669Z,7.96
2019-04-23T03:50:39.413Z,8.03
2019-04-23T03:53:18.462Z,8.15
2019-04-23T03:55:54.585Z,8.31
2019-04-23T04:03:55.596Z,8.52
2019-04-23T04:06:05.320Z,8.66
2019-04-23T04:08:36.121Z,8.66
2019-04-23T04:11:18.143Z,8.79
2019-04-23T04:19:07.541Z,9.29
2019-04-23T04:21:31.951Z,9.65
2019-04-23T04:24:05.154Z,9.74
2019-04-23T04:26:34.908Z,10.22
2019-04-23T04:31:42.840Z,10.98
2019-04-23T04:34:22.285Z,11.11
2019-04-23T04:36:45.567Z,11.32
2019-04-23T04:39:06.061Z,11.42
2019-04-23T04:41:52.616Z,11.66
2019-04-23T04:46:49.899Z,11.82
2019-04-23T04:49:30.472Z,11.73
2019-04-23T04:52:13.486Z,11.90
2019-04-23T04:54:37.638Z,11.94
2019-04-23T04:57:13.092Z,11.77
2019-04-23T05:02:22.497Z,11.91
2019-04-23T05:04:53.989Z,11.98
2019-04-23T05:09:55.165Z,12.53
2019-04-23T05:12:29.077Z,12.61
2019-04-23T05:15:03.019Z,12.78
2019-04-23T05:17:43.174Z,12.75
2019-04-23T05:25:05.775Z,13.01
2019-04-23T05:27:53.666Z,13.12
2019-04-23T05:30:22.563Z,13.04
2019-04-23T05:32:57.938Z,13.43
2019-04-23T05:35:39.900Z,13.30
2019-04-23T05:38:08.742Z,13.11
2019-04-23T05:43:03.387Z,13.67
2019-04-23T05:50:59.079Z,13.96
2019-04-23T05:53:21.584Z,14.29
2019-04-23T05:55:55.421Z,14.44
2019-04-23T05:58:33.025Z,14.10
2019-04-23T06:06:55.785Z,14.47
2019-04-23T06:09:10.565Z,14.63
2019-04-23T06:14:11.379Z,14.37
2019-04-23T06:16:58.970Z,14.35
2019-04-23T06:24:29.250Z,15.08
2019-04-23T06:27:01.738Z,15.36
2019-04-23T06:29:32.201Z,15.39
2019-04-23T06:32:02.316Z,15.70
2019-04-23T06:34:33.960Z,15.96
2019-04-23T06:37:12.747Z,15.71
2019-04-23T06:39:41.307Z,15.15
2019-04-23T06:42:11.646Z,15.54
2019-04-23T06:44:59.878Z,15.51
2019-04-23T06:47:20.134Z,15.45
2019-04-23T06:49:55.907Z,15.70
2019-04-23T06:55:03.010Z,16.04
2019-04-23T06:57:33.331Z,16.04
2019-04-23T07:00:07.476Z,16.05
2019-04-23T07:05:20.605Z,16.07
2019-04-23T07:07:52.733Z,16.00
2019-04-23T07:10:18.650Z,16.08
2019-04-23T07:12:59.705Z,16.51
2019-04-23T07:17:58.048Z,16.84
2019-04-23T07:20:33.507Z,16.77
2019-04-23T07:23:13.865Z,16.25
2019-04-23T07:25:39.046Z,16.19
2019-04-23T07:28:21.283Z,16.27
2019-04-23T07:30:52.168Z,16.71
2019-04-23T07:33:19.198Z,16.58
2019-04-23T07:35:51.777Z,16.12
2019-04-23T07:38:42.164Z,16.18
2019-04-23T07:41:23.630Z,16.41
2019-04-23T07:44:05.844Z,16.51
2019-04-23T07:46:40.741Z,16.36
2019-04-23T07:49:11.897Z,16.80
2019-04-23T07:51:46.755Z,16.62
2019-04-23T07:54:19.384Z,16.70
2019-04-23T07:56:53.843Z,17.10
2019-04-23T07:59:30.816Z,17.28
2019-04-23T08:01:57.410Z,17.02
2019-04-23T08:04:36.908Z,17.29
2019-04-23T08:07:01.275Z,17.30
2019-04-23T08:10:02.348Z,17.12
2019-04-23T08:12:31.331Z,17.22
2019-04-23T08:15:02.250Z,17.37
2019-04-23T08:17:31.204Z,17.52
2019-04-23T08:20:07.662Z,17.94
2019-04-23T08:22:39.382Z,17.35
2019-04-23T08:25:26.641Z,17.80
2019-04-23T08:27:51.823Z,17.32
2019-04-23T08:30:15.890Z,17.63
2019-04-23T08:32:57.424Z,17.92
2019-04-23T08:35:30.076Z,17.79
2019-04-23T08:38:12.279Z,17.83
2019-04-23T08:40:33.543Z,17.42
2019-04-23T08:43:34.856Z,17.53
2019-04-23T08:46:05.890Z,17.48
2019-04-23T08:51:24.119Z,17.17
2019-04-23T08:53:40.741Z,17.21
2019-04-23T08:56:18.443Z,17.22
2019-04-23T08:58:47.293Z,17.76
2019-04-23T09:01:24.533Z,17.76
2019-04-23T09:03:52.657Z,17.73
2019-04-23T09:06:27.646Z,17.66
2019-04-23T09:09:04.581Z,17.77
2019-04-23T09:14:00.944Z,17.57
2019-04-23T09:16:44.679Z,18.28
2019-04-23T09:19:20.023Z,18.68
2019-04-23T09:21:50.542Z,18.12
2019-04-23T09:24:20.140Z,18.68
2019-04-23T09:26:58.952Z,17.92
2019-04-23T09:29:36.640Z,18.25
2019-04-23T09:34:46.539Z,18.48
2019-04-23T09:37:35.745Z,18.43
2019-04-23T09:40:18.454Z,17.96
2019-04-23T09:48:11.774Z,17.95
2019-04-23T09:50:56.949Z,18.02
2019-04-23T09:53:27.832Z,18.12
2019-04-23T09:55:45.482Z,18.30
2019-04-23T09:58:23.823Z,18.19
2019-04-23T10:01:19.629Z,18.35
2019-04-23T10:03:38.210Z,18.58
2019-04-23T10:06:02.970Z,18.46
2019-04-23T10:08:35.537Z,18.53
2019-04-23T10:11:03.288Z,18.65
2019-04-23T10:13:34.631Z,18.56
2019-04-23T10:16:06.882Z,18.62
2019-04-23T10:18:39.398Z,18.72
2019-04-23T10:21:11.206Z,18.27
2019-04-23T10:23:43.303Z,18.13
2019-04-23T10:26:14.482Z,18.35
2019-04-23T10:28:51.984Z,18.79
2019-04-23T10:31:24.947Z,18.70
2019-04-23T10:33:57.814Z,18.40
2019-04-23T10:36:31.715Z,18.06
2019-04-23T10:39:10.702Z,18.53
2019-04-23T10:41:38.465Z,18.38
2019-04-23T10:44:13.436Z,18.31
2019-04-23T10:47:20.033Z,18.16
2019-04-23T10:50:05.443Z,18.28
2019-04-23T10:52:33.713Z,18.04
2019-04-23T10:55:06.119Z,18.20
2019-04-23T10:57:33.027Z,18.38
2019-04-23T11:00:09.494Z,18.54
2019-04-23T11:03:14.031Z,18.51
2019-04-23T11:05:29.115Z,18.31
2019-04-23T11:07:42.067Z,18.35
2019-04-23T11:13:27.285Z,18.16
2019-04-23T11:15:44.237Z,18.11
2019-04-23T11:18:06.343Z,18.26
2019-04-23T11:20:45.413Z,18.47
2019-04-23T11:23:11.591Z,18.74
2019-04-23T11:26:06.614Z,18.77
2019-04-23T11:28:27.931Z,19.04
2019-04-23T11:30:55.787Z,18.58
2019-04-23T11:33:50.898Z,18.63
2019-04-23T11:36:35.618Z,18.50
2019-04-23T11:41:22.841Z,17.89
2019-04-23T11:43:50.789Z,17.74
2019-04-23T11:46:35.855Z,17.84
2019-04-23T11:49:04.613Z,18.11
2019-04-23T11:57:04.406Z,17.82
2019-04-23T11:59:12.353Z,17.65
2019-04-23T12:04:35.004Z,17.83
2019-04-23T12:07:25.959Z,18.21
2019-04-23T12:12:32.840Z,18.35
2019-04-23T12:17:48.952Z,19.01
2019-04-23T12:20:25.644Z,19.09
2019-04-23T12:23:01.157Z,18.81
2019-04-23T12:25:32.895Z,18.53
2019-04-23T12:27:42.448Z,18.87
2019-04-23T12:30:33.999Z,18.91
2019-04-23T12:33:04.181Z,18.72
2019-04-23T12:35:43.406Z,18.67
2019-04-23T12:38:14.242Z,19.00
2019-04-23T12:40:40.532Z,18.88
2019-04-23T12:43:15.604Z,18.92
2019-04-23T12:45:57.621Z,19.28
2019-04-23T12:48:36.846Z,19.36
2019-04-23T12:53:30.579Z,19.04
2019-04-23T12:56:03.717Z,19.04
2019-04-23T12:58:29.173Z,18.99
2019-04-23T13:01:06.776Z,19.04
2019-04-23T13:06:13.690Z,19.20
2019-04-23T13:09:01.453Z,18.99
2019-04-23T13:11:25.404Z,19.08
2019-04-23T13:13:58.835Z,19.23
2019-04-23T13:19:06.412Z,19.12
2019-04-23T13:21:51.432Z,19.27
2019-04-23T13:24:15.675Z,19.05
2019-04-23T13:26:44.536Z,19.06
2019-04-23T13:29:27.284Z,19.43
2019-04-23T13:31:50.172Z,19.10
2019-04-23T13:34:34.735Z,19.33
2019-04-23T13:37:00.483Z,19.38
2019-04-23T13:39:39.902Z,19.56
2019-04-23T13:42:19.892Z,19.51
2019-04-23T13:44:51.887Z,19.39
2019-04-23T13:47:28.212Z,19.49
2019-04-23T13:49:57.213Z,19.27
2019-04-23T13:52:59.733Z,19.37
2019-04-23T13:55:09.412Z,19.31
2019-04-23T14:00:09.032Z,19.31
2019-04-23T14:02:46.236Z,19.81
2019-04-23T14:05:23.256Z,19.65
2019-04-23T14:07:57.031Z,19.64
2019-04-23T14:10:34.173Z,19.75
2019-04-23T14:13:15.101Z,19.85
2019-04-23T14:15:46.281Z,19.42
2019-04-23T14:18:27.347Z,19.61
2019-04-23T14:20:40.399Z,19.24
2019-04-23T14:23:29.317Z,18.98
2019-04-23T14:26:10.880Z,19.19
2019-04-23T14:28:28.974Z,19.02
2019-04-23T14:31:01.147Z,18.82
2019-04-23T14:33:40.535Z,18.59
2019-04-23T14:36:02.843Z,18.24
2019-04-23T14:38:40.049Z,17.96
2019-04-23T14:41:16.506Z,17.98
2019-04-23T14:43:56.047Z,17.71
2019-04-23T14:46:38.523Z,17.56
2019-04-23T14:51:49.914Z,17.15
2019-04-23T14:54:36.251Z,17.08
2019-04-23T14:59:19.875Z,17.20
2019-04-23T15:02:05.481Z,17.20
2019-04-23T15:04:43.432Z,17.09
2019-04-23T15:07:15.659Z,17.18
2019-04-23T15:12:22.678Z,17.37
2019-04-23T15:14:59.372Z,17.55
2019-04-23T15:20:03.051Z,17.75
2019-04-23T15:22:47.957Z,17.69
2019-04-23T15:25:19.344Z,17.60
2019-04-23T15:30:04.081Z,17.19
2019-04-23T15:32:54.464Z,17.31
2019-04-23T15:38:27.062Z,16.95
2019-04-23T15:40:25.180Z,16.89
2019-04-23T15:43:04.781Z,16.87
2019-04-23T15:45:38.376Z,16.78
2019-04-23T15:48:11.255Z,16.75
2019-04-23T15:50:43.473Z,16.63
2019-04-23T15:53:25.042Z,16.56
2019-04-23T15:55:49.686Z,16.66
2019-04-23T15:58:30.040Z,16.62
2019-04-23T16:01:18.374Z,16.49
2019-04-23T16:03:20.617Z,16.38
2019-04-23T16:05:52.967Z,16.26
2019-04-23T16:09:04.743Z,16.20
2019-04-23T16:11:41.191Z,16.16
2019-04-23T16:14:16.758Z,16.10
2019-04-23T16:19:17.208Z,16.02
2019-04-23T16:24:17.737Z,15.97
2019-04-23T16:26:55.855Z,15.86
2019-04-23T16:34:34.056Z,15.77
2019-04-23T16:37:08.461Z,15.73
2019-04-23T16:39:49.322Z,15.71
2019-04-23T16:42:24.881Z,15.59
2019-04-23T16:47:32.954Z,15.51
2019-04-23T16:53:05.032Z,15.41
2019-04-23T16:57:59.847Z,15.36
2019-04-23T17:03:06.791Z,15.24
2019-04-23T17:05:33.678Z,15.11
2019-04-23T17:08:33.850Z,15.01
2019-04-23T17:10:38.879Z,15.02
2019-04-23T17:15:53.479Z,14.83
2019-04-23T17:18:17.334Z,14.79
2019-04-23T17:23:31.686Z,14.68
2019-04-23T17:26:00.883Z,14.58
2019-04-23T17:31:24.600Z,14.53
2019-04-23T17:39:00.686Z,14.36
2019-04-23T17:44:31.517Z,14.25
2019-04-23T17:46:50.446Z,14.22
2019-04-23T17:49:23.382Z,14.17
2019-04-23T17:52:11.475Z,14.07
2019-04-23T18:00:08.316Z,13.93
2019-04-23T18:05:02.565Z,13.79
2019-04-23T18:10:18.315Z,13.71
2019-04-23T18:15:10.651Z,13.65
2019-04-23T18:20:36.899Z,13.57
2019-04-23T18:23:08.492Z,13.59
2019-04-23T18:28:10.390Z,13.48
2019-04-23T18:30:59.992Z,13.37
2019-04-23T18:33:54.662Z,13.38
2019-04-23T18:35:56.722Z,13.25
2019-04-23T18:38:53.252Z,13.23
2019-04-23T18:48:50.073Z,13.17
2019-04-23T18:51:40.662Z,13.10
2019-04-23T18:53:52.733Z,13.09
2019-04-23T18:56:51.507Z,12.95
2019-04-23T19:01:47.852Z,12.98
2019-04-23T19:04:58.565Z,12.89
2019-04-23T19:07:27.384Z,12.87
2019-04-23T19:12:41.416Z,12.74
2019-04-23T19:15:21.634Z,12.74
2019-04-23T19:17:56.606Z,12.70
2019-04-23T19:20:37.916Z,12.69
2019-04-23T19:22:58.827Z,12.67
2019-04-23T19:25:28.089Z,12.66
2019-04-23T19:28:09.190Z,12.62
2019-04-23T19:30:46.403Z,12.58
2019-04-23T19:41:02.218Z,12.40
2019-04-23T19:46:36.641Z,12.46
2019-04-23T19:49:07.316Z,12.37
2019-04-23T19:51:17.138Z,12.30
2019-04-23T19:56:45.297Z,12.38
2019-04-23T19:58:59.699Z,12.33
2019-04-23T20:01:36.342Z,12.28
2019-04-23T20:03:56.099Z,12.42
2019-04-23T20:06:58.578Z,12.43
2019-04-23T20:11:50.233Z,12.38
2019-04-23T20:14:10.837Z,12.36
2019-04-23T20:17:04.101Z,12.33
2019-04-23T20:19:33.775Z,12.36
2019-04-23T20:30:15.524Z,12.25
2019-04-23T20:35:06.584Z,12.22
2019-04-23T20:38:09.785Z,12.09
2019-04-23T20:40:18.657Z,12.15
2019-04-23T20:42:48.128Z,12.15
2019-04-23T20:47:52.822Z,12.02
2019-04-23T20:50:18.169Z,12.00
2019-04-23T20:52:53.188Z,12.10
2019-04-23T20:55:38.527Z,12.11
2019-04-23T20:58:03.653Z,12.10
2019-04-23T21:00:56.389Z,12.19
2019-04-23T21:06:04.287Z,12.19
2019-04-23T21:10:55.608Z,12.08
2019-04-23T21:16:04.938Z,12.02
2019-04-23T21:21:22.273Z,12.02
2019-04-23T21:26:17.415Z,12.06
2019-04-23T21:29:17.445Z,12.00
2019-04-23T21:31:32.142Z,12.01
2019-04-23T21:36:44.386Z,12.05
2019-04-23T21:42:07.473Z,12.01
2019-04-23T21:44:18.335Z,11.97
2019-04-23T21:47:06.409Z,12.00
2019-04-23T21:52:07.968Z,12.08
2019-04-23T21:54:47.337Z,12.11
2019-04-23T21:57:11.044Z,12.09
2019-04-23T21:59:52.191Z,12.12
2019-04-23T22:02:36.157Z,12.14
2019-04-23T22:04:52.059Z,12.10
2019-04-23T22:07:29.317Z,12.19
2019-04-23T22:09:57.625Z,12.12
2019-04-23T22:12:33.867Z,12.14
2019-04-23T22:14:55.653Z,12.14
2019-04-23T22:17:37.472Z,12.14
2019-04-23T22:20:26.468Z,12.13
2019-04-23T22:22:58.778Z,12.18
2019-04-23T22:25:13.293Z,12.11
2019-04-23T22:27:50.769Z,12.08
2019-04-23T22:30:22.387Z,12.13
2019-04-23T22:33:09.531Z,12.16
2019-04-23T22:35:35.566Z,12.08
2019-04-23T22:40:34.945Z,12.07
2019-04-23T22:43:15.004Z,12.03
2019-04-23T22:48:13.901Z,12.01
2019-04-23T22:50:57.543Z,12.05
2019-04-23T22:53:15.249Z,11.97
2019-04-23T22:56:03.369Z,11.98
2019-04-23T22:58:31.671Z,11.98
2019-04-23T23:01:15.889Z,11.95
2019-04-23T23:03:49.040Z,11.92
2019-04-23T23:06:18.194Z,11.98
2019-04-23T23:09:01.086Z,11.93
2019-04-23T23:11:28.734Z,11.91
2019-04-23T23:14:10.157Z,11.92
2019-04-23T23:16:27.831Z,11.97
2019-04-23T23:19:03.927Z,11.90
2019-04-23T23:21:44.368Z,11.90
2019-04-23T23:24:07.439Z,11.88
2019-04-23T23:26:49.982Z,11.89
2019-04-23T23:29:19.150Z,11.90
2019-04-23T23:34:36.892Z,11.90
2019-04-23T23:37:08.865Z,11.87
2019-04-23T23:39:35.234Z,11.81
2019-04-23T23:42:09.824Z,11.90
2019-04-23T23:44:56.201Z,11.84
2019-04-23T23:47:14.728Z,11.83
2019-04-23T23:50:07.382Z,11.75
2019-04-23T23:52:33.177Z,11.75
2019-04-23T23:54:59.382Z,11.73
2019-04-23T23:57:32.251Z,11.70
